sensor_id;sensor_type;location;lat;lon;timestamp;P1;durP1;ratioP1;P2;durP2;ratioP2
20535;SDS011;10426;49.420;8.390;2023-09-30T00:00:27;2.00;;;1.73;;
20535;SDS011;10426;49.420;8.390;2023-09-30T00:02:54;2.05;;;1.85;;
20535;SDS011;10426;49.420;8.390;2023-09-30T00:05:21;2.07;;;1.80;;
20535;SDS011;10426;49.420;8.390;2023-09-30T00:07:47;2.22;;;1.98;;
20535;SDS011;10426;49.420;8.390;2023-09-30T00:10:14;2.20;;;1.90;;
20535;SDS011;10426;49.420;8.390;2023-09-30T00:12:41;1.95;;;1.80;;
20535;SDS011;10426;49.420;8.390;2023-09-30T00:15:09;2.00;;;1.80;;
20535;SDS011;10426;49.420;8.390;2023-09-30T00:17:37;2.33;;;2.00;;
20535;SDS011;10426;49.420;8.390;2023-09-30T00:20:04;2.33;;;2.13;;
20535;SDS011;10426;49.420;8.390;2023-09-30T00:22:31;2.70;;;2.10;;
20535;SDS011;10426;49.420;8.390;2023-09-30T00:24:58;2.13;;;1.88;;
20535;SDS011;10426;49.420;8.390;2023-09-30T00:27:24;2.63;;;2.17;;
20535;SDS011;10426;49.420;8.390;2023-09-30T00:29:51;2.90;;;2.40;;
20535;SDS011;10426;49.420;8.390;2023-09-30T00:32:18;3.30;;;2.40;;
20535;SDS011;10426;49.420;8.390;2023-09-30T00:34:46;2.60;;;2.20;;
20535;SDS011;10426;49.420;8.390;2023-09-30T00:37:12;3.25;;;2.00;;
20535;SDS011;10426;49.420;8.390;2023-09-30T00:39:39;2.47;;;2.00;;
20535;SDS011;10426;49.420;8.390;2023-09-30T00:42:06;3.00;;;2.22;;
20535;SDS011;10426;49.420;8.390;2023-09-30T00:44:32;3.70;;;2.10;;
20535;SDS011;10426;49.420;8.390;2023-09-30T00:46:59;2.35;;;2.13;;
20535;SDS011;10426;49.420;8.390;2023-09-30T00:49:26;2.50;;;2.30;;
20535;SDS011;10426;49.420;8.390;2023-09-30T00:51:54;3.17;;;2.17;;
20535;SDS011;10426;49.420;8.390;2023-09-30T00:54:20;3.50;;;2.28;;
20535;SDS011;10426;49.420;8.390;2023-09-30T00:56:48;2.73;;;2.30;;
20535;SDS011;10426;49.420;8.390;2023-09-30T00:59:16;2.65;;;2.13;;
20535;SDS011;10426;49.420;8.390;2023-09-30T01:01:43;3.50;;;2.30;;
20535;SDS011;10426;49.420;8.390;2023-09-30T01:04:10;2.40;;;2.20;;
20535;SDS011;10426;49.420;8.390;2023-09-30T01:06:37;3.53;;;2.40;;
20535;SDS011;10426;49.420;8.390;2023-09-30T01:09:05;3.65;;;2.30;;
20535;SDS011;10426;49.420;8.390;2023-09-30T01:11:32;2.65;;;2.17;;
20535;SDS011;10426;49.420;8.390;2023-09-30T01:13:58;2.55;;;2.10;;
20535;SDS011;10426;49.420;8.390;2023-09-30T01:16:25;2.90;;;2.38;;
20535;SDS011;10426;49.420;8.390;2023-09-30T01:18:52;4.30;;;2.38;;
20535;SDS011;10426;49.420;8.390;2023-09-30T01:21:18;3.00;;;2.10;;
20535;SDS011;10426;49.420;8.390;2023-09-30T01:23:47;2.63;;;2.30;;
20535;SDS011;10426;49.420;8.390;2023-09-30T01:26:14;4.68;;;2.40;;
20535;SDS011;10426;49.420;8.390;2023-09-30T01:28:41;2.90;;;2.17;;
20535;SDS011;10426;49.420;8.390;2023-09-30T01:31:07;3.17;;;2.30;;
20535;SDS011;10426;49.420;8.390;2023-09-30T01:33:34;2.83;;;2.40;;
20535;SDS011;10426;49.420;8.390;2023-09-30T01:36:01;3.30;;;2.40;;
20535;SDS011;10426;49.420;8.390;2023-09-30T01:38:27;3.50;;;2.20;;
20535;SDS011;10426;49.420;8.390;2023-09-30T01:40:55;3.90;;;2.22;;
20535;SDS011;10426;49.420;8.390;2023-09-30T01:43:22;3.60;;;2.40;;
20535;SDS011;10426;49.420;8.390;2023-09-30T01:45:48;3.10;;;2.40;;
20535;SDS011;10426;49.420;8.390;2023-09-30T01:48:15;3.92;;;2.30;;
20535;SDS011;10426;49.420;8.390;2023-09-30T01:50:42;4.00;;;2.30;;
20535;SDS011;10426;49.420;8.390;2023-09-30T01:53:08;3.13;;;2.40;;
20535;SDS011;10426;49.420;8.390;2023-09-30T01:55:35;3.75;;;2.50;;
20535;SDS011;10426;49.420;8.390;2023-09-30T01:58:03;3.05;;;2.50;;
20535;SDS011;10426;49.420;8.390;2023-09-30T02:00:30;3.80;;;2.65;;
20535;SDS011;10426;49.420;8.390;2023-09-30T02:02:57;3.17;;;2.90;;
20535;SDS011;10426;49.420;8.390;2023-09-30T02:05:23;4.32;;;3.08;;
20535;SDS011;10426;49.420;8.390;2023-09-30T02:11:12;4.65;;;3.00;;
20535;SDS011;10426;49.420;8.390;2023-09-30T02:13:40;3.40;;;3.10;;
20535;SDS011;10426;49.420;8.390;2023-09-30T02:16:11;4.25;;;3.17;;
20535;SDS011;10426;49.420;8.390;2023-09-30T02:18:37;7.22;;;3.67;;
20535;SDS011;10426;49.420;8.390;2023-09-30T02:21:05;4.25;;;3.05;;
20535;SDS011;10426;49.420;8.390;2023-09-30T02:23:33;4.32;;;3.00;;
20535;SDS011;10426;49.420;8.390;2023-09-30T02:25:59;3.43;;;3.10;;
20535;SDS011;10426;49.420;8.390;2023-09-30T02:28:26;4.00;;;3.17;;
20535;SDS011;10426;49.420;8.390;2023-09-30T02:30:54;4.15;;;3.08;;
20535;SDS011;10426;49.420;8.390;2023-09-30T02:33:20;4.47;;;3.30;;
20535;SDS011;10426;49.420;8.390;2023-09-30T02:35:47;3.90;;;3.40;;
20535;SDS011;10426;49.420;8.390;2023-09-30T02:38:15;4.22;;;3.60;;
20535;SDS011;10426;49.420;8.390;2023-09-30T02:40:44;3.90;;;3.30;;
20535;SDS011;10426;49.420;8.390;2023-09-30T02:43:12;6.57;;;3.43;;
20535;SDS011;10426;49.420;8.390;2023-09-30T02:45:38;5.65;;;3.60;;
20535;SDS011;10426;49.420;8.390;2023-09-30T02:48:06;3.50;;;3.20;;
20535;SDS011;10426;49.420;8.390;2023-09-30T02:50:33;3.33;;;2.95;;
20535;SDS011;10426;49.420;8.390;2023-09-30T02:53:00;4.63;;;3.20;;
20535;SDS011;10426;49.420;8.390;2023-09-30T02:55:27;4.22;;;3.20;;
20535;SDS011;10426;49.420;8.390;2023-09-30T02:57:53;4.43;;;3.40;;
20535;SDS011;10426;49.420;8.390;2023-09-30T03:00:21;3.40;;;3.10;;
20535;SDS011;10426;49.420;8.390;2023-09-30T03:02:49;5.82;;;3.70;;
20535;SDS011;10426;49.420;8.390;2023-09-30T03:05:19;4.97;;;3.60;;
20535;SDS011;10426;49.420;8.390;2023-09-30T03:07:47;5.93;;;3.55;;
20535;SDS011;10426;49.420;8.390;2023-09-30T03:10:16;4.18;;;3.40;;
20535;SDS011;10426;49.420;8.390;2023-09-30T03:12:45;4.47;;;3.60;;
20535;SDS011;10426;49.420;8.390;2023-09-30T03:15:12;4.75;;;3.30;;
20535;SDS011;10426;49.420;8.390;2023-09-30T03:17:40;5.00;;;3.40;;
20535;SDS011;10426;49.420;8.390;2023-09-30T03:20:07;4.43;;;3.17;;
20535;SDS011;10426;49.420;8.390;2023-09-30T03:22:38;3.30;;;3.00;;
20535;SDS011;10426;49.420;8.390;2023-09-30T03:25:06;3.33;;;3.03;;
20535;SDS011;10426;49.420;8.390;2023-09-30T03:27:34;3.40;;;3.10;;
20535;SDS011;10426;49.420;8.390;2023-09-30T03:30:02;3.88;;;3.05;;
20535;SDS011;10426;49.420;8.390;2023-09-30T03:32:29;4.77;;;3.23;;
20535;SDS011;10426;49.420;8.390;2023-09-30T03:34:56;4.35;;;2.90;;
20535;SDS011;10426;49.420;8.390;2023-09-30T03:37:24;3.50;;;3.17;;
20535;SDS011;10426;49.420;8.390;2023-09-30T03:39:53;5.15;;;3.38;;
20535;SDS011;10426;49.420;8.390;2023-09-30T03:42:20;4.43;;;3.35;;
20535;SDS011;10426;49.420;8.390;2023-09-30T03:44:46;6.30;;;3.40;;
20535;SDS011;10426;49.420;8.390;2023-09-30T03:47:14;3.75;;;3.13;;
20535;SDS011;10426;49.420;8.390;2023-09-30T03:49:41;3.10;;;2.80;;
20535;SDS011;10426;49.420;8.390;2023-09-30T03:52:08;5.00;;;3.17;;
20535;SDS011;10426;49.420;8.390;2023-09-30T03:54:34;3.28;;;2.97;;
20535;SDS011;10426;49.420;8.390;2023-09-30T03:57:02;4.03;;;3.10;;
20535;SDS011;10426;49.420;8.390;2023-09-30T03:59:29;5.03;;;3.10;;
20535;SDS011;10426;49.420;8.390;2023-09-30T04:01:56;5.22;;;3.42;;
20535;SDS011;10426;49.420;8.390;2023-09-30T04:04:23;4.38;;;3.20;;
20535;SDS011;10426;49.420;8.390;2023-09-30T04:06:51;4.05;;;3.15;;
20535;SDS011;10426;49.420;8.390;2023-09-30T04:09:17;3.35;;;3.05;;
20535;SDS011;10426;49.420;8.390;2023-09-30T04:11:44;4.65;;;3.08;;
20535;SDS011;10426;49.420;8.390;2023-09-30T04:14:13;4.60;;;3.20;;
20535;SDS011;10426;49.420;8.390;2023-09-30T04:16:42;3.97;;;3.10;;
20535;SDS011;10426;49.420;8.390;2023-09-30T04:19:10;4.63;;;3.10;;
20535;SDS011;10426;49.420;8.390;2023-09-30T04:21:36;4.63;;;3.50;;
20535;SDS011;10426;49.420;8.390;2023-09-30T04:24:04;5.55;;;3.50;;
20535;SDS011;10426;49.420;8.390;2023-09-30T04:26:32;4.22;;;3.47;;
20535;SDS011;10426;49.420;8.390;2023-09-30T04:28:58;5.20;;;3.38;;
20535;SDS011;10426;49.420;8.390;2023-09-30T04:31:28;4.53;;;3.60;;
20535;SDS011;10426;49.420;8.390;2023-09-30T04:33:55;4.00;;;3.60;;
20535;SDS011;10426;49.420;8.390;2023-09-30T04:36:23;4.63;;;3.47;;
20535;SDS011;10426;49.420;8.390;2023-09-30T04:38:49;5.82;;;3.60;;
20535;SDS011;10426;49.420;8.390;2023-09-30T04:41:16;5.03;;;3.90;;
20535;SDS011;10426;49.420;8.390;2023-09-30T04:43:44;4.82;;;3.70;;
20535;SDS011;10426;49.420;8.390;2023-09-30T04:46:11;6.40;;;3.88;;
20535;SDS011;10426;49.420;8.390;2023-09-30T04:48:40;5.50;;;3.97;;
20535;SDS011;10426;49.420;8.390;2023-09-30T04:51:07;4.55;;;3.63;;
20535;SDS011;10426;49.420;8.390;2023-09-30T04:53:33;5.17;;;3.70;;
20535;SDS011;10426;49.420;8.390;2023-09-30T04:56:00;6.28;;;4.05;;
20535;SDS011;10426;49.420;8.390;2023-09-30T04:58:27;5.38;;;4.25;;
20535;SDS011;10426;49.420;8.390;2023-09-30T05:00:55;4.53;;;4.10;;
20535;SDS011;10426;49.420;8.390;2023-09-30T05:03:21;6.20;;;4.30;;
20535;SDS011;10426;49.420;8.390;2023-09-30T05:05:50;5.35;;;4.30;;
20535;SDS011;10426;49.420;8.390;2023-09-30T05:08:18;5.10;;;4.47;;
20535;SDS011;10426;49.420;8.390;2023-09-30T05:10:45;4.95;;;4.45;;
20535;SDS011;10426;49.420;8.390;2023-09-30T05:13:13;4.78;;;4.28;;
20535;SDS011;10426;49.420;8.390;2023-09-30T05:15:39;4.50;;;4.10;;
20535;SDS011;10426;49.420;8.390;2023-09-30T05:18:07;6.00;;;4.10;;
20535;SDS011;10426;49.420;8.390;2023-09-30T05:20:35;5.15;;;4.40;;
20535;SDS011;10426;49.420;8.390;2023-09-30T05:23:05;5.63;;;4.30;;
20535;SDS011;10426;49.420;8.390;2023-09-30T05:25:33;4.95;;;4.10;;
20535;SDS011;10426;49.420;8.390;2023-09-30T05:28:00;4.75;;;4.10;;
20535;SDS011;10426;49.420;8.390;2023-09-30T05:30:26;5.18;;;4.68;;
20535;SDS011;10426;49.420;8.390;2023-09-30T05:32:53;6.70;;;3.97;;
20535;SDS011;10426;49.420;8.390;2023-09-30T05:35:19;5.88;;;4.03;;
20535;SDS011;10426;49.420;8.390;2023-09-30T05:37:48;5.53;;;3.70;;
20535;SDS011;10426;49.420;8.390;2023-09-30T05:40:19;4.55;;;4.15;;
20535;SDS011;10426;49.420;8.390;2023-09-30T05:42:51;5.10;;;4.20;;
20535;SDS011;10426;49.420;8.390;2023-09-30T05:45:18;5.78;;;4.40;;
20535;SDS011;10426;49.420;8.390;2023-09-30T05:47:45;8.07;;;4.70;;
20535;SDS011;10426;49.420;8.390;2023-09-30T05:50:12;5.53;;;4.40;;
20535;SDS011;10426;49.420;8.390;2023-09-30T05:52:41;5.78;;;4.03;;
20535;SDS011;10426;49.420;8.390;2023-09-30T05:55:08;7.00;;;4.13;;
20535;SDS011;10426;49.420;8.390;2023-09-30T05:57:36;6.70;;;4.50;;
20535;SDS011;10426;49.420;8.390;2023-09-30T06:00:03;8.40;;;4.47;;
20535;SDS011;10426;49.420;8.390;2023-09-30T06:02:46;5.93;;;4.80;;
20535;SDS011;10426;49.420;8.390;2023-09-30T06:05:13;5.57;;;4.93;;
20535;SDS011;10426;49.420;8.390;2023-09-30T06:07:41;5.43;;;4.45;;
20535;SDS011;10426;49.420;8.390;2023-09-30T06:10:10;5.65;;;4.57;;
20535;SDS011;10426;49.420;8.390;2023-09-30T06:12:38;6.72;;;4.80;;
20535;SDS011;10426;49.420;8.390;2023-09-30T06:15:06;6.68;;;5.30;;
20535;SDS011;10426;49.420;8.390;2023-09-30T06:17:32;7.13;;;5.15;;
20535;SDS011;10426;49.420;8.390;2023-09-30T06:19:59;8.48;;;5.10;;
20535;SDS011;10426;49.420;8.390;2023-09-30T06:22:32;7.55;;;4.85;;
20535;SDS011;10426;49.420;8.390;2023-09-30T06:24:59;7.70;;;4.80;;
20535;SDS011;10426;49.420;8.390;2023-09-30T06:27:27;6.30;;;4.80;;
20535;SDS011;10426;49.420;8.390;2023-09-30T06:29:55;7.35;;;5.22;;
20535;SDS011;10426;49.420;8.390;2023-09-30T06:32:22;6.90;;;5.10;;
20535;SDS011;10426;49.420;8.390;2023-09-30T06:34:49;7.33;;;5.20;;
20535;SDS011;10426;49.420;8.390;2023-09-30T06:37:15;6.35;;;5.10;;
20535;SDS011;10426;49.420;8.390;2023-09-30T06:39:44;6.47;;;5.25;;
20535;SDS011;10426;49.420;8.390;2023-09-30T06:42:10;9.07;;;5.10;;
20535;SDS011;10426;49.420;8.390;2023-09-30T06:44:37;5.72;;;5.10;;
20535;SDS011;10426;49.420;8.390;2023-09-30T06:47:05;9.73;;;5.03;;
20535;SDS011;10426;49.420;8.390;2023-09-30T06:49:33;7.88;;;5.10;;
20535;SDS011;10426;49.420;8.390;2023-09-30T06:52:00;7.00;;;5.40;;
20535;SDS011;10426;49.420;8.390;2023-09-30T06:54:28;7.25;;;5.57;;
20535;SDS011;10426;49.420;8.390;2023-09-30T06:56:55;6.43;;;5.70;;
20535;SDS011;10426;49.420;8.390;2023-09-30T06:59:21;8.50;;;5.55;;
20535;SDS011;10426;49.420;8.390;2023-09-30T07:01:50;9.20;;;5.15;;
20535;SDS011;10426;49.420;8.390;2023-09-30T07:04:18;9.43;;;6.10;;
20535;SDS011;10426;49.420;8.390;2023-09-30T07:06:45;7.78;;;5.70;;
20535;SDS011;10426;49.420;8.390;2023-09-30T07:09:11;7.63;;;5.80;;
20535;SDS011;10426;49.420;8.390;2023-09-30T07:11:38;6.68;;;5.40;;
20535;SDS011;10426;49.420;8.390;2023-09-30T07:14:04;8.07;;;5.90;;
20535;SDS011;10426;49.420;8.390;2023-09-30T07:16:31;7.60;;;6.00;;
20535;SDS011;10426;49.420;8.390;2023-09-30T07:18:58;8.05;;;6.30;;
20535;SDS011;10426;49.420;8.390;2023-09-30T07:21:26;9.48;;;6.50;;
20535;SDS011;10426;49.420;8.390;2023-09-30T07:23:52;7.22;;;6.20;;
20535;SDS011;10426;49.420;8.390;2023-09-30T07:26:22;7.90;;;5.65;;
20535;SDS011;10426;49.420;8.390;2023-09-30T07:28:49;11.50;;;6.10;;
20535;SDS011;10426;49.420;8.390;2023-09-30T07:31:16;10.23;;;5.93;;
20535;SDS011;10426;49.420;8.390;2023-09-30T07:33:42;8.48;;;5.63;;
20535;SDS011;10426;49.420;8.390;2023-09-30T07:36:09;10.60;;;6.43;;
20535;SDS011;10426;49.420;8.390;2023-09-30T07:38:37;8.95;;;6.10;;
20535;SDS011;10426;49.420;8.390;2023-09-30T07:41:04;8.30;;;6.40;;
20535;SDS011;10426;49.420;8.390;2023-09-30T07:43:30;9.67;;;6.17;;
20535;SDS011;10426;49.420;8.390;2023-09-30T07:45:57;8.35;;;6.72;;
20535;SDS011;10426;49.420;8.390;2023-09-30T07:48:24;7.30;;;6.53;;
20535;SDS011;10426;49.420;8.390;2023-09-30T07:50:51;6.15;;;5.55;;
20535;SDS011;10426;49.420;8.390;2023-09-30T07:53:18;8.43;;;6.40;;
20535;SDS011;10426;49.420;8.390;2023-09-30T07:55:46;9.57;;;6.45;;
20535;SDS011;10426;49.420;8.390;2023-09-30T07:58:12;7.45;;;5.80;;
20535;SDS011;10426;49.420;8.390;2023-09-30T08:00:40;9.32;;;5.97;;
20535;SDS011;10426;49.420;8.390;2023-09-30T08:03:06;8.35;;;5.75;;
20535;SDS011;10426;49.420;8.390;2023-09-30T08:05:33;6.03;;;5.13;;
20535;SDS011;10426;49.420;8.390;2023-09-30T08:08:01;6.90;;;6.07;;
20535;SDS011;10426;49.420;8.390;2023-09-30T08:10:27;9.32;;;6.38;;
20535;SDS011;10426;49.420;8.390;2023-09-30T08:12:56;9.48;;;6.25;;
20535;SDS011;10426;49.420;8.390;2023-09-30T08:15:23;7.60;;;5.43;;
20535;SDS011;10426;49.420;8.390;2023-09-30T08:17:50;10.93;;;5.65;;
20535;SDS011;10426;49.420;8.390;2023-09-30T08:20:17;8.50;;;5.32;;
20535;SDS011;10426;49.420;8.390;2023-09-30T08:22:44;8.82;;;6.32;;
20535;SDS011;10426;49.420;8.390;2023-09-30T08:25:10;6.93;;;5.85;;
20535;SDS011;10426;49.420;8.390;2023-09-30T08:27:37;9.30;;;6.47;;
20535;SDS011;10426;49.420;8.390;2023-09-30T08:30:06;10.00;;;6.40;;
20535;SDS011;10426;49.420;8.390;2023-09-30T08:32:33;8.80;;;6.10;;
20535;SDS011;10426;49.420;8.390;2023-09-30T08:35:00;8.65;;;5.88;;
20535;SDS011;10426;49.420;8.390;2023-09-30T08:37:28;10.45;;;6.80;;
20535;SDS011;10426;49.420;8.390;2023-09-30T08:39:55;7.47;;;6.70;;
20535;SDS011;10426;49.420;8.390;2023-09-30T08:42:22;9.75;;;6.35;;
20535;SDS011;10426;49.420;8.390;2023-09-30T08:44:50;10.17;;;6.90;;
20535;SDS011;10426;49.420;8.390;2023-09-30T08:47:18;8.88;;;7.28;;
20535;SDS011;10426;49.420;8.390;2023-09-30T08:49:48;8.15;;;6.30;;
20535;SDS011;10426;49.420;8.390;2023-09-30T08:52:15;8.75;;;6.50;;
20535;SDS011;10426;49.420;8.390;2023-09-30T08:54:42;8.70;;;6.20;;
20535;SDS011;10426;49.420;8.390;2023-09-30T08:57:09;10.32;;;6.15;;
20535;SDS011;10426;49.420;8.390;2023-09-30T08:59:36;7.30;;;6.28;;
20535;SDS011;10426;49.420;8.390;2023-09-30T09:02:04;9.88;;;6.68;;
20535;SDS011;10426;49.420;8.390;2023-09-30T09:04:34;6.55;;;5.53;;
20535;SDS011;10426;49.420;8.390;2023-09-30T09:07:01;7.65;;;5.47;;
20535;SDS011;10426;49.420;8.390;2023-09-30T09:09:30;7.93;;;5.40;;
20535;SDS011;10426;49.420;8.390;2023-09-30T09:11:57;7.28;;;5.75;;
20535;SDS011;10426;49.420;8.390;2023-09-30T09:14:36;7.65;;;6.00;;
20535;SDS011;10426;49.420;8.390;2023-09-30T09:17:03;9.00;;;6.78;;
20535;SDS011;10426;49.420;8.390;2023-09-30T09:19:30;8.18;;;6.07;;
20535;SDS011;10426;49.420;8.390;2023-09-30T09:22:03;7.63;;;5.50;;
20535;SDS011;10426;49.420;8.390;2023-09-30T09:24:35;8.18;;;4.82;;
20535;SDS011;10426;49.420;8.390;2023-09-30T09:27:04;7.65;;;5.20;;
20535;SDS011;10426;49.420;8.390;2023-09-30T09:29:34;8.30;;;5.82;;
20535;SDS011;10426;49.420;8.390;2023-09-30T09:32:08;6.75;;;5.45;;
20535;SDS011;10426;49.420;8.390;2023-09-30T09:34:35;8.13;;;6.22;;
20535;SDS011;10426;49.420;8.390;2023-09-30T09:37:13;9.10;;;6.00;;
20535;SDS011;10426;49.420;8.390;2023-09-30T09:39:44;7.97;;;5.80;;
20535;SDS011;10426;49.420;8.390;2023-09-30T09:42:22;7.63;;;5.97;;
20535;SDS011;10426;49.420;8.390;2023-09-30T09:44:50;5.27;;;4.60;;
20535;SDS011;10426;49.420;8.390;2023-09-30T09:47:17;6.55;;;4.00;;
20535;SDS011;10426;49.420;8.390;2023-09-30T09:49:44;5.10;;;4.10;;
20535;SDS011;10426;49.420;8.390;2023-09-30T09:52:11;6.18;;;4.20;;
20535;SDS011;10426;49.420;8.390;2023-09-30T09:54:41;7.32;;;4.47;;
20535;SDS011;10426;49.420;8.390;2023-09-30T09:57:09;7.40;;;5.03;;
20535;SDS011;10426;49.420;8.390;2023-09-30T09:59:36;6.72;;;4.38;;
20535;SDS011;10426;49.420;8.390;2023-09-30T10:02:05;5.70;;;5.03;;
20535;SDS011;10426;49.420;8.390;2023-09-30T10:04:36;6.38;;;4.68;;
20535;SDS011;10426;49.420;8.390;2023-09-30T10:07:03;7.07;;;4.70;;
20535;SDS011;10426;49.420;8.390;2023-09-30T10:09:31;9.85;;;4.78;;
20535;SDS011;10426;49.420;8.390;2023-09-30T10:12:02;6.07;;;4.53;;
20535;SDS011;10426;49.420;8.390;2023-09-30T10:14:29;4.80;;;4.30;;
20535;SDS011;10426;49.420;8.390;2023-09-30T10:16:58;5.22;;;3.88;;
20535;SDS011;10426;49.420;8.390;2023-09-30T10:19:24;5.68;;;4.40;;
20535;SDS011;10426;49.420;8.390;2023-09-30T10:24:35;5.28;;;4.00;;
20535;SDS011;10426;49.420;8.390;2023-09-30T10:29:53;8.93;;;5.73;;
20535;SDS011;10426;49.420;8.390;2023-09-30T10:32:19;6.15;;;3.88;;
20535;SDS011;10426;49.420;8.390;2023-09-30T10:34:47;6.00;;;4.30;;
20535;SDS011;10426;49.420;8.390;2023-09-30T10:37:20;6.60;;;3.78;;
20535;SDS011;10426;49.420;8.390;2023-09-30T10:39:53;6.38;;;4.07;;
20535;SDS011;10426;49.420;8.390;2023-09-30T10:45:02;5.65;;;3.78;;
20535;SDS011;10426;49.420;8.390;2023-09-30T10:47:36;6.25;;;3.58;;
20535;SDS011;10426;49.420;8.390;2023-09-30T10:50:03;6.45;;;3.80;;
20535;SDS011;10426;49.420;8.390;2023-09-30T10:52:50;5.43;;;3.50;;
20535;SDS011;10426;49.420;8.390;2023-09-30T10:55:19;6.18;;;3.80;;
20535;SDS011;10426;49.420;8.390;2023-09-30T10:57:50;5.50;;;3.70;;
20535;SDS011;10426;49.420;8.390;2023-09-30T11:00:18;5.43;;;3.75;;
20535;SDS011;10426;49.420;8.390;2023-09-30T11:02:48;5.53;;;4.03;;
20535;SDS011;10426;49.420;8.390;2023-09-30T11:05:16;5.25;;;3.72;;
20535;SDS011;10426;49.420;8.390;2023-09-30T11:07:43;5.38;;;3.67;;
20535;SDS011;10426;49.420;8.390;2023-09-30T11:10:11;5.88;;;4.00;;
20535;SDS011;10426;49.420;8.390;2023-09-30T11:12:52;5.40;;;4.03;;
20535;SDS011;10426;49.420;8.390;2023-09-30T11:15:20;6.35;;;3.83;;
20535;SDS011;10426;49.420;8.390;2023-09-30T11:17:47;5.85;;;3.75;;
20535;SDS011;10426;49.420;8.390;2023-09-30T11:20:14;6.93;;;3.75;;
20535;SDS011;10426;49.420;8.390;2023-09-30T11:22:42;6.03;;;3.80;;
20535;SDS011;10426;49.420;8.390;2023-09-30T11:25:14;5.43;;;3.80;;
20535;SDS011;10426;49.420;8.390;2023-09-30T11:27:41;8.35;;;4.00;;
20535;SDS011;10426;49.420;8.390;2023-09-30T11:30:08;6.13;;;4.03;;
20535;SDS011;10426;49.420;8.390;2023-09-30T11:32:37;6.07;;;4.07;;
20535;SDS011;10426;49.420;8.390;2023-09-30T11:35:05;6.57;;;4.15;;
20535;SDS011;10426;49.420;8.390;2023-09-30T11:37:34;4.13;;;3.70;;
20535;SDS011;10426;49.420;8.390;2023-09-30T11:40:10;5.78;;;4.03;;
20535;SDS011;10426;49.420;8.390;2023-09-30T11:42:38;6.17;;;3.90;;
20535;SDS011;10426;49.420;8.390;2023-09-30T11:45:18;5.72;;;4.15;;
20535;SDS011;10426;49.420;8.390;2023-09-30T11:47:46;6.22;;;4.07;;
20535;SDS011;10426;49.420;8.390;2023-09-30T11:50:14;5.13;;;3.88;;
20535;SDS011;10426;49.420;8.390;2023-09-30T11:52:43;7.80;;;4.35;;
20535;SDS011;10426;49.420;8.390;2023-09-30T11:55:11;8.25;;;3.92;;
20535;SDS011;10426;49.420;8.390;2023-09-30T11:57:39;6.10;;;4.20;;
20535;SDS011;10426;49.420;8.390;2023-09-30T12:00:06;5.20;;;4.00;;
20535;SDS011;10426;49.420;8.390;2023-09-30T12:02:38;9.02;;;4.55;;
20535;SDS011;10426;49.420;8.390;2023-09-30T12:05:07;7.15;;;4.13;;
20535;SDS011;10426;49.420;8.390;2023-09-30T12:07:37;6.40;;;3.95;;
20535;SDS011;10426;49.420;8.390;2023-09-30T12:10:03;4.90;;;4.10;;
20535;SDS011;10426;49.420;8.390;2023-09-30T12:12:30;7.60;;;4.65;;
20535;SDS011;10426;49.420;8.390;2023-09-30T12:14:57;6.07;;;4.35;;
20535;SDS011;10426;49.420;8.390;2023-09-30T12:17:23;6.77;;;4.10;;
20535;SDS011;10426;49.420;8.390;2023-09-30T12:19:50;4.85;;;4.10;;
20535;SDS011;10426;49.420;8.390;2023-09-30T12:22:18;6.18;;;4.07;;
20535;SDS011;10426;49.420;8.390;2023-09-30T12:24:46;4.93;;;4.00;;
20535;SDS011;10426;49.420;8.390;2023-09-30T12:27:13;5.93;;;4.10;;
20535;SDS011;10426;49.420;8.390;2023-09-30T12:29:39;5.95;;;3.97;;
20535;SDS011;10426;49.420;8.390;2023-09-30T12:32:06;6.20;;;4.07;;
20535;SDS011;10426;49.420;8.390;2023-09-30T12:34:33;5.20;;;4.03;;
20535;SDS011;10426;49.420;8.390;2023-09-30T12:37:01;5.30;;;4.07;;
20535;SDS011;10426;49.420;8.390;2023-09-30T12:39:30;5.05;;;4.10;;
20535;SDS011;10426;49.420;8.390;2023-09-30T12:41:58;4.45;;;3.95;;
20535;SDS011;10426;49.420;8.390;2023-09-30T12:44:25;4.85;;;3.97;;
20535;SDS011;10426;49.420;8.390;2023-09-30T12:46:51;5.22;;;3.90;;
20535;SDS011;10426;49.420;8.390;2023-09-30T12:49:18;5.60;;;4.13;;
20535;SDS011;10426;49.420;8.390;2023-09-30T12:51:45;5.35;;;3.95;;
20535;SDS011;10426;49.420;8.390;2023-09-30T12:54:12;6.60;;;4.03;;
20535;SDS011;10426;49.420;8.390;2023-09-30T12:56:41;5.95;;;4.25;;
20535;SDS011;10426;49.420;8.390;2023-09-30T12:59:08;5.50;;;4.07;;
20535;SDS011;10426;49.420;8.390;2023-09-30T13:01:34;5.45;;;3.85;;
20535;SDS011;10426;49.420;8.390;2023-09-30T13:04:01;5.18;;;4.10;;
20535;SDS011;10426;49.420;8.390;2023-09-30T13:06:28;5.85;;;4.05;;
20535;SDS011;10426;49.420;8.390;2023-09-30T13:08:57;6.15;;;4.13;;
20535;SDS011;10426;49.420;8.390;2023-09-30T13:11:24;4.68;;;4.03;;
20535;SDS011;10426;49.420;8.390;2023-09-30T13:13:52;5.68;;;4.20;;
20535;SDS011;10426;49.420;8.390;2023-09-30T13:16:18;5.05;;;4.00;;
20535;SDS011;10426;49.420;8.390;2023-09-30T13:18:45;4.35;;;3.95;;
20535;SDS011;10426;49.420;8.390;2023-09-30T13:21:13;5.22;;;4.30;;
20535;SDS011;10426;49.420;8.390;2023-09-30T13:23:40;5.13;;;4.25;;
20535;SDS011;10426;49.420;8.390;2023-09-30T13:26:07;4.85;;;4.20;;
20535;SDS011;10426;49.420;8.390;2023-09-30T13:28:34;5.50;;;4.07;;
20535;SDS011;10426;49.420;8.390;2023-09-30T13:31:02;6.63;;;4.43;;
20535;SDS011;10426;49.420;8.390;2023-09-30T13:33:28;5.55;;;4.20;;
20535;SDS011;10426;49.420;8.390;2023-09-30T13:35:55;4.80;;;4.30;;
20535;SDS011;10426;49.420;8.390;2023-09-30T13:38:22;5.13;;;4.00;;
20535;SDS011;10426;49.420;8.390;2023-09-30T13:40:49;6.10;;;4.07;;
20535;SDS011;10426;49.420;8.390;2023-09-30T13:43:15;5.75;;;4.30;;
20535;SDS011;10426;49.420;8.390;2023-09-30T13:45:42;4.78;;;4.20;;
20535;SDS011;10426;49.420;8.390;2023-09-30T13:48:10;4.30;;;3.83;;
20535;SDS011;10426;49.420;8.390;2023-09-30T13:50:37;4.72;;;3.97;;
20535;SDS011;10426;49.420;8.390;2023-09-30T13:53:03;5.72;;;4.35;;
20535;SDS011;10426;49.420;8.390;2023-09-30T13:55:30;5.03;;;4.00;;
20535;SDS011;10426;49.420;8.390;2023-09-30T13:57:57;5.78;;;4.20;;
20535;SDS011;10426;49.420;8.390;2023-09-30T14:00:23;4.35;;;3.83;;
20535;SDS011;10426;49.420;8.390;2023-09-30T14:02:50;6.23;;;4.10;;
20535;SDS011;10426;49.420;8.390;2023-09-30T14:05:18;6.72;;;4.15;;
20535;SDS011;10426;49.420;8.390;2023-09-30T14:07:45;6.57;;;4.50;;
20535;SDS011;10426;49.420;8.390;2023-09-30T14:10:12;6.22;;;4.22;;
20535;SDS011;10426;49.420;8.390;2023-09-30T14:12:38;5.57;;;4.00;;
20535;SDS011;10426;49.420;8.390;2023-09-30T14:15:06;6.33;;;4.30;;
20535;SDS011;10426;49.420;8.390;2023-09-30T14:17:33;5.35;;;4.43;;
20535;SDS011;10426;49.420;8.390;2023-09-30T14:20:00;7.03;;;4.20;;
20535;SDS011;10426;49.420;8.390;2023-09-30T14:22:29;5.78;;;4.20;;
20535;SDS011;10426;49.420;8.390;2023-09-30T14:24:55;5.45;;;4.20;;
20535;SDS011;10426;49.420;8.390;2023-09-30T14:27:22;6.43;;;4.13;;
20535;SDS011;10426;49.420;8.390;2023-09-30T14:29:49;4.97;;;4.20;;
20535;SDS011;10426;49.420;8.390;2023-09-30T14:32:15;6.60;;;4.20;;
20535;SDS011;10426;49.420;8.390;2023-09-30T14:34:42;6.32;;;4.43;;
20535;SDS011;10426;49.420;8.390;2023-09-30T14:37:09;5.43;;;4.20;;
20535;SDS011;10426;49.420;8.390;2023-09-30T14:39:37;4.97;;;4.05;;
20535;SDS011;10426;49.420;8.390;2023-09-30T14:42:04;4.88;;;4.15;;
20535;SDS011;10426;49.420;8.390;2023-09-30T14:44:30;6.68;;;4.20;;
20535;SDS011;10426;49.420;8.390;2023-09-30T14:46:57;6.05;;;4.10;;
20535;SDS011;10426;49.420;8.390;2023-09-30T14:49:24;6.60;;;3.97;;
20535;SDS011;10426;49.420;8.390;2023-09-30T14:51:50;5.10;;;4.20;;
20535;SDS011;10426;49.420;8.390;2023-09-30T14:54:17;4.88;;;4.28;;
20535;SDS011;10426;49.420;8.390;2023-09-30T14:56:45;6.00;;;3.90;;
20535;SDS011;10426;49.420;8.390;2023-09-30T14:59:12;4.43;;;3.93;;
20535;SDS011;10426;49.420;8.390;2023-09-30T15:01:38;5.32;;;3.90;;